Salt Lake City, Utah
Traffic Map
Current Weather Conditions
Salt Lake City, Utah
Broken Clouds
Broken Clouds
54°
Feels Like: 54°
Wind Chill: 54° Ceiling: 18000
Heat Index: 54° Visibility: 10mi
Dew Point: 45° Wind: 6mph
Humidity: 72% Direction: 160° (SSE)
Pressure: 30.06in Gusts: 0mph
Raw Report DataKSLC 240254Z 16005KT 10SM FEW085 SCT120 BKN180 12/07 A3006 RMK AO2 SLP159 TCU DSNT W T01220072 58016
Traffic Incident Summary
Active as of:
Severity:
Category:
InformationThere was an issue retrieving the traffic information for this location. Please try a different location or try again shortly.
Advertisements